• Join FlightAware (Why Join?)
  • Login
  • US Flag 
01:30AM EDT


 

Airport Tracker/Info


-or-


 

Live Flight TrackerFlight Track Log ✈ CTL22 ✈ 18-Jun-2013 ✈ KAZO - KBKL

Flight Track Log - Related Links

Times and Time Zones

All times are in EDT time to prevent confusion due to time zone crossing. See the CTL22 flight status page for this flight to view local times or setup timezone preferences in your user account.

Time Position Orientation Groundspeed Altitude Reporting Facility
EDT Latitude Longitude Course Direction KTS MPH feet Rate Location/Type
08:05PM 42.2119 -85.4036 113° Southeast 125 144 4,600  Level Chicago Center
08:06PM 42.1939 -85.3589 119° Southeast 132 152 5,300 600 Climbing Chicago Center
08:07PM 42.1750 -85.3125 119° Southeast 138 159 5,900 480 Climbing Chicago Center
08:08PM 42.1719 -85.1803 103° East  Level Estimated
08:08PM 42.1556 -85.2611 117° Southeast 149 171 6,400  Level Chicago Center
08:09PM 42.1614 -85.1185 103° East  Level Estimated
08:09PM 42.1372 -85.2081 115° Southeast 154 177 6,900  Level Chicago Center
08:10PM 42.1175 -85.1525 116° Southeast 160 184 7,000 60 Climbing Chicago Center
08:11PM 42.0958 -85.0792 112° Southeast 170 196 7,100 -60 Climbing Chicago Center
08:12PM 42.0731 -85.0189 117° Southeast 177 204 6,900 -60 Descending Chicago Center
08:13PM 42.0489 -84.9592 119° Southeast 179 206 7,000  Climbing Chicago Center
08:14PM 42.0247 -84.9006 119° Southeast 179 206 7,000  Level Chicago Center
08:15PM 42.0019 -84.8392 117° Southeast 182 209 7,000  Level Chicago Center
08:16PM 41.9861 -84.7764 109° East 178 205 7,000  Level Chicago Center
08:17PM 41.9608 -84.7039 115° Southeast 178 205 7,000 60 Level Chicago Center
08:18PM 41.9358 -84.6453 120° Southeast 179 206 7,200  Climbing Chicago Center
08:19PM 41.9142 -84.5836 115° Southeast 181 208 7,100 -120 Descending Chicago Center
08:20PM 41.8914 -84.5208 116° Southeast 184 212 7,000 -60 Descending Chicago Center
08:21PM 41.8750 -84.4564 109° East 184 212 7,000 -60 Level Chicago Center
08:22PM 41.8556 -84.3950 113° Southeast 181 208 6,900  Descending Chicago Center
08:23PM 41.8236 -84.3244 121° Southeast 181 208 7,000  Climbing Chicago Center
08:24PM 41.7975 -84.2633 120° Southeast 184 212 6,900  Descending Chicago Center
08:25PM 41.7786 -84.1986 111° Southeast 188 216 7,000  Climbing Chicago Center
08:27PM 41.7597 -84.1353 112° Southeast 186 214 7,000  Level Chicago Center
08:45PM 41.5994 -82.9683 100° East 174 200 7,200  Climbing Cleveland Center
08:45PM 41.6000 -82.9378 89° East 176 203 7,000 -180 Descending Cleveland Center
08:46PM 41.5953 -82.8739 96° East 180 207 7,000  Level Cleveland Center
08:47PM 41.5922 -82.8072 93° East 174 200 7,000  Level Cleveland Center
08:49PM 41.5800 -82.6844 98° East 175 201 7,000 -300 Level Cleveland Center
08:50PM 41.5836 -82.6042 87° East 202 232 6,200 -660 Descending Cleveland Center
08:52PM 41.5964 -82.4600 83° East 193 222 5,000 -420 Descending Cleveland Center
08:53PM 41.5994 -82.3992 86° East 169 194 5,000  Level Cleveland Center
08:54PM 41.6067 -82.3411 81° East 162 186 5,000 -360 Level Cleveland Center
08:55PM 41.6119 -82.2661 85° East 174 200 4,300 -600 Descending Cleveland Center
08:56PM 41.6147 -82.2133 86° East 175 201 3,800 -660 Descending Cleveland Center
08:57PM 41.6219 -82.1525 81° East 171 197 3,200 -420 Descending Cleveland Center
08:58PM 41.6269 -82.0917 84° East 168 193 3,000 -600 Descending Cleveland Center
08:59PM 41.6319 -82.0250 84° East 184 212 2,000 -600 Descending Cleveland Center
09:00PM 41.6264 -81.9636 97° East 173 199 1,800 -240 Descending Cleveland Center
09:01PM 41.6000 -81.9075 122° Southeast 171 197 1,600 -120 Descending Cleveland Center
09:02PM 41.5756 -81.8600 125° Southeast 160 184 1,600  Level Cleveland Center
09:03PM 41.5489 -81.8094 125° Southeast 160 184 1,600 -180 Level Cleveland Center
09:04PM 41.5267 -81.7592 121° Southeast 146 168 1,300 -300 Descending Cleveland Center